Oceano, California
Current Conditions -  °F | °C
As of 4:56 PM on Friday 19 Dec 2014 (Local Time) from KSBP Reporting Station
Overcast Overcast  
Wind Chill: 60°   Ceiling: 3200
Heat Index: 60°   Visibility: 10mi
Dew Point: 52°   Wind: 5mph
Humidity: 75%   Direction: 180°S
Pressure: 30.18"   Gusts: NA
Location:  35.1°N, 120.61°W
Report Text: KSBP 200056Z 18004KT 10SM OVC032 16/11 A3018 RMK AO2 SLP219 T01560111
Loading
Personal Weather Stations






























Interactive Weather Map New forecast layout! Learn more

10-Day Weather Forecast

Advertisements
Track Severe Weather on mobile